sensor_id;sensor_type;location;lat;lon;timestamp;P1;durP1;ratioP1;P2;durP2;ratioP2
5127;SDS011;2582;48.770;9.190;2023-08-17T00:01:38;7.63;;;6.80;;
5127;SDS011;2582;48.770;9.190;2023-08-17T00:04:04;6.80;;;6.23;;
5127;SDS011;2582;48.770;9.190;2023-08-17T00:06:30;7.57;;;6.87;;
5127;SDS011;2582;48.770;9.190;2023-08-17T00:08:55;7.10;;;6.40;;
5127;SDS011;2582;48.770;9.190;2023-08-17T00:11:21;7.57;;;6.87;;
5127;SDS011;2582;48.770;9.190;2023-08-17T00:13:47;8.43;;;7.73;;
5127;SDS011;2582;48.770;9.190;2023-08-17T00:16:12;8.90;;;7.47;;
5127;SDS011;2582;48.770;9.190;2023-08-17T00:18:38;10.27;;;9.27;;
5127;SDS011;2582;48.770;9.190;2023-08-17T00:21:04;8.17;;;7.47;;
5127;SDS011;2582;48.770;9.190;2023-08-17T00:23:29;7.90;;;7.20;;
5127;SDS011;2582;48.770;9.190;2023-08-17T00:25:55;7.87;;;7.13;;
5127;SDS011;2582;48.770;9.190;2023-08-17T00:28:20;7.67;;;6.93;;
5127;SDS011;2582;48.770;9.190;2023-08-17T00:30:46;11.63;;;7.90;;
5127;SDS011;2582;48.770;9.190;2023-08-17T00:33:11;9.20;;;8.40;;
5127;SDS011;2582;48.770;9.190;2023-08-17T00:35:37;8.00;;;7.20;;
5127;SDS011;2582;48.770;9.190;2023-08-17T00:38:03;16.23;;;8.50;;
5127;SDS011;2582;48.770;9.190;2023-08-17T00:40:28;11.00;;;9.37;;
5127;SDS011;2582;48.770;9.190;2023-08-17T00:42:54;7.77;;;7.00;;
5127;SDS011;2582;48.770;9.190;2023-08-17T00:45:19;8.70;;;7.60;;
5127;SDS011;2582;48.770;9.190;2023-08-17T00:47:47;8.63;;;7.80;;
5127;SDS011;2582;48.770;9.190;2023-08-17T00:50:12;8.27;;;7.47;;
5127;SDS011;2582;48.770;9.190;2023-08-17T00:52:40;9.10;;;8.30;;
5127;SDS011;2582;48.770;9.190;2023-08-17T00:55:06;9.57;;;8.73;;
5127;SDS011;2582;48.770;9.190;2023-08-17T00:57:33;8.10;;;6.87;;
5127;SDS011;2582;48.770;9.190;2023-08-17T00:59:58;7.80;;;7.20;;
5127;SDS011;2582;48.770;9.190;2023-08-17T01:02:25;8.33;;;7.53;;
5127;SDS011;2582;48.770;9.190;2023-08-17T01:04:51;9.80;;;8.87;;
5127;SDS011;2582;48.770;9.190;2023-08-17T01:07:17;9.67;;;8.77;;
5127;SDS011;2582;48.770;9.190;2023-08-17T01:09:42;10.10;;;9.10;;
5127;SDS011;2582;48.770;9.190;2023-08-17T01:12:16;8.87;;;8.07;;
5127;SDS011;2582;48.770;9.190;2023-08-17T01:15:32;8.10;;;7.30;;
5127;SDS011;2582;48.770;9.190;2023-08-17T01:17:47;9.20;;;7.97;;
5127;SDS011;2582;48.770;9.190;2023-08-17T01:20:19;9.20;;;8.30;;
5127;SDS011;2582;48.770;9.190;2023-08-17T01:22:48;9.20;;;7.90;;
5127;SDS011;2582;48.770;9.190;2023-08-17T01:25:15;8.43;;;7.73;;
5127;SDS011;2582;48.770;9.190;2023-08-17T01:27:41;8.93;;;8.13;;
5127;SDS011;2582;48.770;9.190;2023-08-17T01:30:09;8.10;;;6.70;;
5127;SDS011;2582;48.770;9.190;2023-08-17T01:32:38;9.50;;;7.37;;
5127;SDS011;2582;48.770;9.190;2023-08-17T01:37:59;9.70;;;8.80;;
5127;SDS011;2582;48.770;9.190;2023-08-17T01:40:31;10.23;;;7.87;;
5127;SDS011;2582;48.770;9.190;2023-08-17T01:42:58;9.43;;;8.53;;
5127;SDS011;2582;48.770;9.190;2023-08-17T01:45:24;10.07;;;8.90;;
5127;SDS011;2582;48.770;9.190;2023-08-17T01:47:50;9.23;;;8.43;;
5127;SDS011;2582;48.770;9.190;2023-08-17T01:50:16;8.90;;;7.70;;
5127;SDS011;2582;48.770;9.190;2023-08-17T01:52:41;8.87;;;8.07;;
5127;SDS011;2582;48.770;9.190;2023-08-17T01:55:07;9.67;;;8.30;;
5127;SDS011;2582;48.770;9.190;2023-08-17T01:57:33;13.03;;;8.50;;
5127;SDS011;2582;48.770;9.190;2023-08-17T02:00:00;11.30;;;8.13;;
5127;SDS011;2582;48.770;9.190;2023-08-17T02:02:26;11.13;;;10.03;;
5127;SDS011;2582;48.770;9.190;2023-08-17T02:04:51;9.53;;;8.53;;
5127;SDS011;2582;48.770;9.190;2023-08-17T02:07:17;10.00;;;8.00;;
5127;SDS011;2582;48.770;9.190;2023-08-17T02:09:42;10.87;;;9.90;;
5127;SDS011;2582;48.770;9.190;2023-08-17T02:12:08;9.17;;;8.27;;
5127;SDS011;2582;48.770;9.190;2023-08-17T02:14:33;8.43;;;7.73;;
5127;SDS011;2582;48.770;9.190;2023-08-17T02:16:59;10.13;;;8.17;;
5127;SDS011;2582;48.770;9.190;2023-08-17T02:19:24;10.60;;;8.50;;
5127;SDS011;2582;48.770;9.190;2023-08-17T02:21:51;8.80;;;8.00;;
5127;SDS011;2582;48.770;9.190;2023-08-17T02:24:16;8.37;;;7.63;;
5127;SDS011;2582;48.770;9.190;2023-08-17T02:26:42;11.17;;;8.97;;
5127;SDS011;2582;48.770;9.190;2023-08-17T02:29:07;8.87;;;8.00;;
5127;SDS011;2582;48.770;9.190;2023-08-17T02:31:33;8.10;;;7.37;;
5127;SDS011;2582;48.770;9.190;2023-08-17T02:33:58;9.67;;;8.40;;
5127;SDS011;2582;48.770;9.190;2023-08-17T02:36:29;7.70;;;7.10;;
5127;SDS011;2582;48.770;9.190;2023-08-17T02:38:55;8.07;;;7.37;;
5127;SDS011;2582;48.770;9.190;2023-08-17T02:41:21;7.63;;;6.90;;
5127;SDS011;2582;48.770;9.190;2023-08-17T02:43:46;9.50;;;8.40;;
5127;SDS011;2582;48.770;9.190;2023-08-17T02:46:12;10.00;;;9.07;;
5127;SDS011;2582;48.770;9.190;2023-08-17T02:48:37;9.20;;;8.30;;
5127;SDS011;2582;48.770;9.190;2023-08-17T02:51:03;9.23;;;8.23;;
5127;SDS011;2582;48.770;9.190;2023-08-17T02:53:29;8.80;;;8.10;;
5127;SDS011;2582;48.770;9.190;2023-08-17T02:55:54;9.70;;;8.80;;
5127;SDS011;2582;48.770;9.190;2023-08-17T02:58:20;8.10;;;7.30;;
5127;SDS011;2582;48.770;9.190;2023-08-17T03:00:45;10.40;;;8.47;;
5127;SDS011;2582;48.770;9.190;2023-08-17T03:03:11;9.80;;;8.90;;
5127;SDS011;2582;48.770;9.190;2023-08-17T03:05:37;12.67;;;9.33;;
5127;SDS011;2582;48.770;9.190;2023-08-17T03:08:02;9.60;;;8.70;;
5127;SDS011;2582;48.770;9.190;2023-08-17T03:10:28;9.77;;;8.70;;
5127;SDS011;2582;48.770;9.190;2023-08-17T03:12:54;10.70;;;9.80;;
5127;SDS011;2582;48.770;9.190;2023-08-17T03:15:20;9.33;;;8.53;;
5127;SDS011;2582;48.770;9.190;2023-08-17T03:17:45;9.87;;;8.87;;
5127;SDS011;2582;48.770;9.190;2023-08-17T03:20:11;9.83;;;8.90;;
5127;SDS011;2582;48.770;9.190;2023-08-17T03:22:36;13.20;;;11.13;;
5127;SDS011;2582;48.770;9.190;2023-08-17T03:25:02;8.67;;;7.87;;
5127;SDS011;2582;48.770;9.190;2023-08-17T03:27:28;9.90;;;8.90;;
5127;SDS011;2582;48.770;9.190;2023-08-17T03:29:54;9.00;;;8.10;;
5127;SDS011;2582;48.770;9.190;2023-08-17T03:32:19;11.93;;;10.27;;
5127;SDS011;2582;48.770;9.190;2023-08-17T03:34:45;12.27;;;11.13;;
5127;SDS011;2582;48.770;9.190;2023-08-17T03:37:11;13.70;;;10.13;;
5127;SDS011;2582;48.770;9.190;2023-08-17T03:39:36;10.37;;;9.40;;
5127;SDS011;2582;48.770;9.190;2023-08-17T03:42:02;9.83;;;8.93;;
5127;SDS011;2582;48.770;9.190;2023-08-17T03:44:28;9.77;;;8.87;;
5127;SDS011;2582;48.770;9.190;2023-08-17T03:46:53;13.10;;;11.27;;
5127;SDS011;2582;48.770;9.190;2023-08-17T03:49:19;10.87;;;8.57;;
5127;SDS011;2582;48.770;9.190;2023-08-17T03:51:44;12.17;;;10.97;;
5127;SDS011;2582;48.770;9.190;2023-08-17T03:54:11;13.83;;;10.53;;
5127;SDS011;2582;48.770;9.190;2023-08-17T03:56:37;11.10;;;10.00;;
5127;SDS011;2582;48.770;9.190;2023-08-17T03:59:03;11.33;;;10.33;;
5127;SDS011;2582;48.770;9.190;2023-08-17T04:01:29;11.60;;;9.10;;
5127;SDS011;2582;48.770;9.190;2023-08-17T04:03:54;10.00;;;9.00;;
5127;SDS011;2582;48.770;9.190;2023-08-17T04:06:20;10.00;;;9.10;;
5127;SDS011;2582;48.770;9.190;2023-08-17T04:08:46;11.40;;;10.43;;
5127;SDS011;2582;48.770;9.190;2023-08-17T04:11:11;11.47;;;10.30;;
5127;SDS011;2582;48.770;9.190;2023-08-17T04:13:37;10.57;;;9.57;;
5127;SDS011;2582;48.770;9.190;2023-08-17T04:16:02;10.40;;;9.40;;
5127;SDS011;2582;48.770;9.190;2023-08-17T04:18:28;13.20;;;10.87;;
5127;SDS011;2582;48.770;9.190;2023-08-17T04:20:54;12.10;;;11.00;;
5127;SDS011;2582;48.770;9.190;2023-08-17T04:23:19;11.33;;;10.23;;
5127;SDS011;2582;48.770;9.190;2023-08-17T04:25:46;14.00;;;10.53;;
5127;SDS011;2582;48.770;9.190;2023-08-17T04:28:12;11.57;;;10.50;;
5127;SDS011;2582;48.770;9.190;2023-08-17T04:30:37;14.33;;;12.20;;
5127;SDS011;2582;48.770;9.190;2023-08-17T04:33:03;10.57;;;9.57;;
5127;SDS011;2582;48.770;9.190;2023-08-17T04:35:29;14.80;;;11.63;;
5127;SDS011;2582;48.770;9.190;2023-08-17T04:37:55;10.60;;;9.60;;
5127;SDS011;2582;48.770;9.190;2023-08-17T04:40:20;10.80;;;9.90;;
5127;SDS011;2582;48.770;9.190;2023-08-17T04:42:46;12.80;;;11.60;;
5127;SDS011;2582;48.770;9.190;2023-08-17T04:45:11;12.67;;;11.40;;
5127;SDS011;2582;48.770;9.190;2023-08-17T04:47:37;13.10;;;11.90;;
5127;SDS011;2582;48.770;9.190;2023-08-17T04:50:03;11.70;;;10.60;;
5127;SDS011;2582;48.770;9.190;2023-08-17T04:52:29;13.50;;;12.10;;
5127;SDS011;2582;48.770;9.190;2023-08-17T04:54:55;12.60;;;11.30;;
5127;SDS011;2582;48.770;9.190;2023-08-17T04:57:21;13.33;;;11.97;;
5127;SDS011;2582;48.770;9.190;2023-08-17T04:59:46;16.67;;;14.97;;
5127;SDS011;2582;48.770;9.190;2023-08-17T05:02:12;13.57;;;12.27;;
5127;SDS011;2582;48.770;9.190;2023-08-17T05:04:37;15.53;;;14.00;;
5127;SDS011;2582;48.770;9.190;2023-08-17T05:07:04;14.83;;;13.13;;
5127;SDS011;2582;48.770;9.190;2023-08-17T05:09:30;13.87;;;12.57;;
5127;SDS011;2582;48.770;9.190;2023-08-17T05:11:56;15.60;;;14.10;;
5127;SDS011;2582;48.770;9.190;2023-08-17T05:14:21;16.53;;;14.87;;
5127;SDS011;2582;48.770;9.190;2023-08-17T05:16:47;15.27;;;13.80;;
5127;SDS011;2582;48.770;9.190;2023-08-17T05:19:12;13.73;;;12.33;;
5127;SDS011;2582;48.770;9.190;2023-08-17T05:21:38;16.20;;;14.70;;
5127;SDS011;2582;48.770;9.190;2023-08-17T05:24:04;16.63;;;15.07;;
5127;SDS011;2582;48.770;9.190;2023-08-17T05:26:29;18.87;;;16.60;;
5127;SDS011;2582;48.770;9.190;2023-08-17T05:28:55;15.93;;;14.43;;
5127;SDS011;2582;48.770;9.190;2023-08-17T05:31:21;15.30;;;12.87;;
5127;SDS011;2582;48.770;9.190;2023-08-17T05:33:46;14.80;;;13.40;;
5127;SDS011;2582;48.770;9.190;2023-08-17T05:36:12;13.90;;;12.70;;
5127;SDS011;2582;48.770;9.190;2023-08-17T05:38:38;16.13;;;14.57;;
5127;SDS011;2582;48.770;9.190;2023-08-17T05:41:03;15.17;;;13.83;;
5127;SDS011;2582;48.770;9.190;2023-08-17T05:43:29;16.30;;;14.27;;
5127;SDS011;2582;48.770;9.190;2023-08-17T05:45:56;15.97;;;14.57;;
5127;SDS011;2582;48.770;9.190;2023-08-17T05:48:24;16.40;;;14.80;;
5127;SDS011;2582;48.770;9.190;2023-08-17T05:50:49;15.77;;;14.27;;
5127;SDS011;2582;48.770;9.190;2023-08-17T05:53:15;15.90;;;14.47;;
5127;SDS011;2582;48.770;9.190;2023-08-17T05:55:41;18.03;;;16.30;;
5127;SDS011;2582;48.770;9.190;2023-08-17T05:58:06;16.03;;;14.53;;
5127;SDS011;2582;48.770;9.190;2023-08-17T06:00:32;18.23;;;16.50;;
5127;SDS011;2582;48.770;9.190;2023-08-17T06:02:57;16.20;;;14.60;;
5127;SDS011;2582;48.770;9.190;2023-08-17T06:05:29;16.47;;;14.90;;
5127;SDS011;2582;48.770;9.190;2023-08-17T06:07:58;16.13;;;14.63;;
5127;SDS011;2582;48.770;9.190;2023-08-17T06:10:24;16.23;;;14.53;;
5127;SDS011;2582;48.770;9.190;2023-08-17T06:12:53;17.37;;;15.63;;
5127;SDS011;2582;48.770;9.190;2023-08-17T06:15:19;18.30;;;15.97;;
5127;SDS011;2582;48.770;9.190;2023-08-17T06:17:45;14.90;;;13.50;;
5127;SDS011;2582;48.770;9.190;2023-08-17T06:20:11;15.87;;;14.47;;
5127;SDS011;2582;48.770;9.190;2023-08-17T06:22:37;19.37;;;16.10;;
5127;SDS011;2582;48.770;9.190;2023-08-17T06:25:03;17.40;;;15.60;;
5127;SDS011;2582;48.770;9.190;2023-08-17T06:27:30;15.27;;;13.77;;
5127;SDS011;2582;48.770;9.190;2023-08-17T06:29:55;15.67;;;14.03;;
5127;SDS011;2582;48.770;9.190;2023-08-17T06:32:21;14.00;;;12.70;;
5127;SDS011;2582;48.770;9.190;2023-08-17T06:34:47;16.87;;;15.37;;
5127;SDS011;2582;48.770;9.190;2023-08-17T06:37:12;16.07;;;14.47;;
5127;SDS011;2582;48.770;9.190;2023-08-17T06:39:38;15.10;;;13.70;;
5127;SDS011;2582;48.770;9.190;2023-08-17T06:42:03;14.23;;;12.90;;
5127;SDS011;2582;48.770;9.190;2023-08-17T06:44:29;15.23;;;13.80;;
5127;SDS011;2582;48.770;9.190;2023-08-17T06:46:55;14.20;;;12.80;;
5127;SDS011;2582;48.770;9.190;2023-08-17T06:49:22;16.57;;;14.80;;
5127;SDS011;2582;48.770;9.190;2023-08-17T06:51:47;14.57;;;13.27;;
5127;SDS011;2582;48.770;9.190;2023-08-17T06:54:13;13.03;;;11.30;;
5127;SDS011;2582;48.770;9.190;2023-08-17T06:56:38;12.17;;;11.07;;
5127;SDS011;2582;48.770;9.190;2023-08-17T06:59:04;11.87;;;10.77;;
5127;SDS011;2582;48.770;9.190;2023-08-17T07:01:30;16.13;;;14.50;;
5127;SDS011;2582;48.770;9.190;2023-08-17T07:03:55;13.50;;;12.20;;
5127;SDS011;2582;48.770;9.190;2023-08-17T07:06:22;16.20;;;13.33;;
5127;SDS011;2582;48.770;9.190;2023-08-17T07:08:48;13.40;;;12.20;;
5127;SDS011;2582;48.770;9.190;2023-08-17T07:11:13;14.20;;;13.00;;
5127;SDS011;2582;48.770;9.190;2023-08-17T07:13:39;14.80;;;11.20;;
5127;SDS011;2582;48.770;9.190;2023-08-17T07:16:04;14.37;;;13.00;;
5127;SDS011;2582;48.770;9.190;2023-08-17T07:18:30;12.70;;;11.40;;
5127;SDS011;2582;48.770;9.190;2023-08-17T07:20:55;15.30;;;13.83;;
5127;SDS011;2582;48.770;9.190;2023-08-17T07:23:21;12.43;;;10.77;;
5127;SDS011;2582;48.770;9.190;2023-08-17T07:25:47;12.17;;;10.70;;
5127;SDS011;2582;48.770;9.190;2023-08-17T07:28:13;11.80;;;10.77;;
5127;SDS011;2582;48.770;9.190;2023-08-17T07:30:40;12.90;;;11.70;;
5127;SDS011;2582;48.770;9.190;2023-08-17T07:33:06;12.03;;;11.03;;
5127;SDS011;2582;48.770;9.190;2023-08-17T07:35:32;11.40;;;10.30;;
5127;SDS011;2582;48.770;9.190;2023-08-17T07:37:57;12.47;;;11.37;;
5127;SDS011;2582;48.770;9.190;2023-08-17T07:40:23;11.77;;;10.67;;
5127;SDS011;2582;48.770;9.190;2023-08-17T07:42:48;12.30;;;11.00;;
5127;SDS011;2582;48.770;9.190;2023-08-17T07:45:14;11.47;;;10.43;;
5127;SDS011;2582;48.770;9.190;2023-08-17T07:47:39;12.67;;;11.50;;
5127;SDS011;2582;48.770;9.190;2023-08-17T07:50:05;11.77;;;10.80;;
5127;SDS011;2582;48.770;9.190;2023-08-17T07:52:31;9.53;;;8.60;;
5127;SDS011;2582;48.770;9.190;2023-08-17T07:54:57;13.70;;;12.20;;
5127;SDS011;2582;48.770;9.190;2023-08-17T07:57:23;11.40;;;10.50;;
5127;SDS011;2582;48.770;9.190;2023-08-17T07:59:48;13.43;;;12.13;;
5127;SDS011;2582;48.770;9.190;2023-08-17T08:02:14;11.53;;;10.50;;
5127;SDS011;2582;48.770;9.190;2023-08-17T08:04:39;11.60;;;10.27;;
5127;SDS011;2582;48.770;9.190;2023-08-17T08:07:05;12.03;;;10.87;;
5127;SDS011;2582;48.770;9.190;2023-08-17T08:09:31;12.07;;;10.97;;
5127;SDS011;2582;48.770;9.190;2023-08-17T08:11:56;12.47;;;11.27;;
5127;SDS011;2582;48.770;9.190;2023-08-17T08:14:22;10.57;;;9.47;;
5127;SDS011;2582;48.770;9.190;2023-08-17T08:16:47;11.77;;;10.50;;
5127;SDS011;2582;48.770;9.190;2023-08-17T08:19:13;12.67;;;11.50;;
5127;SDS011;2582;48.770;9.190;2023-08-17T08:21:38;14.80;;;12.80;;
5127;SDS011;2582;48.770;9.190;2023-08-17T08:24:04;11.87;;;10.70;;
5127;SDS011;2582;48.770;9.190;2023-08-17T08:26:30;13.80;;;12.57;;
5127;SDS011;2582;48.770;9.190;2023-08-17T08:28:55;13.33;;;12.00;;
5127;SDS011;2582;48.770;9.190;2023-08-17T08:31:21;15.03;;;13.70;;
5127;SDS011;2582;48.770;9.190;2023-08-17T08:33:46;16.47;;;13.27;;
5127;SDS011;2582;48.770;9.190;2023-08-17T08:36:12;13.63;;;12.43;;
5127;SDS011;2582;48.770;9.190;2023-08-17T08:38:37;14.67;;;13.27;;
5127;SDS011;2582;48.770;9.190;2023-08-17T08:41:03;12.30;;;11.23;;
5127;SDS011;2582;48.770;9.190;2023-08-17T08:43:30;12.23;;;11.03;;
5127;SDS011;2582;48.770;9.190;2023-08-17T08:45:55;12.40;;;11.20;;
5127;SDS011;2582;48.770;9.190;2023-08-17T08:48:23;12.77;;;11.60;;
5127;SDS011;2582;48.770;9.190;2023-08-17T08:50:51;13.77;;;12.47;;
5127;SDS011;2582;48.770;9.190;2023-08-17T08:53:21;12.57;;;11.37;;
5127;SDS011;2582;48.770;9.190;2023-08-17T08:55:54;14.43;;;13.13;;
5127;SDS011;2582;48.770;9.190;2023-08-17T08:58:22;14.10;;;12.73;;
5127;SDS011;2582;48.770;9.190;2023-08-17T09:00:50;14.63;;;12.33;;
5127;SDS011;2582;48.770;9.190;2023-08-17T09:03:18;15.30;;;11.80;;
5127;SDS011;2582;48.770;9.190;2023-08-17T09:05:48;12.23;;;11.23;;
5127;SDS011;2582;48.770;9.190;2023-08-17T09:08:15;14.07;;;12.70;;
5127;SDS011;2582;48.770;9.190;2023-08-17T09:10:46;12.03;;;10.83;;
5127;SDS011;2582;48.770;9.190;2023-08-17T09:13:12;10.87;;;9.93;;
5127;SDS011;2582;48.770;9.190;2023-08-17T09:15:38;15.33;;;11.90;;
5127;SDS011;2582;48.770;9.190;2023-08-17T09:18:05;11.60;;;10.50;;
5127;SDS011;2582;48.770;9.190;2023-08-17T09:20:51;14.40;;;13.00;;
5127;SDS011;2582;48.770;9.190;2023-08-17T09:23:18;13.83;;;12.53;;
5127;SDS011;2582;48.770;9.190;2023-08-17T09:25:47;13.80;;;12.47;;
5127;SDS011;2582;48.770;9.190;2023-08-17T09:28:18;12.87;;;11.57;;
5127;SDS011;2582;48.770;9.190;2023-08-17T09:30:51;13.07;;;11.77;;
5127;SDS011;2582;48.770;9.190;2023-08-17T09:33:23;11.57;;;10.47;;
5127;SDS011;2582;48.770;9.190;2023-08-17T09:35:51;13.40;;;12.07;;
5127;SDS011;2582;48.770;9.190;2023-08-17T09:38:17;11.73;;;10.63;;
5127;SDS011;2582;48.770;9.190;2023-08-17T09:40:43;11.30;;;10.10;;
5127;SDS011;2582;48.770;9.190;2023-08-17T09:43:10;12.10;;;10.40;;
5127;SDS011;2582;48.770;9.190;2023-08-17T09:45:36;11.70;;;10.13;;
5127;SDS011;2582;48.770;9.190;2023-08-17T09:48:03;13.17;;;11.97;;
5127;SDS011;2582;48.770;9.190;2023-08-17T09:50:29;15.60;;;12.90;;
5127;SDS011;2582;48.770;9.190;2023-08-17T09:52:55;13.83;;;12.50;;
5127;SDS011;2582;48.770;9.190;2023-08-17T09:55:23;13.00;;;11.80;;
5127;SDS011;2582;48.770;9.190;2023-08-17T09:57:50;13.83;;;12.40;;
5127;SDS011;2582;48.770;9.190;2023-08-17T10:00:17;12.60;;;11.50;;
5127;SDS011;2582;48.770;9.190;2023-08-17T10:02:49;12.40;;;11.30;;
5127;SDS011;2582;48.770;9.190;2023-08-17T10:05:18;14.10;;;13.00;;
5127;SDS011;2582;48.770;9.190;2023-08-17T10:07:49;14.97;;;13.20;;
5127;SDS011;2582;48.770;9.190;2023-08-17T10:10:19;12.00;;;10.90;;
5127;SDS011;2582;48.770;9.190;2023-08-17T10:15:32;13.93;;;12.63;;
5127;SDS011;2582;48.770;9.190;2023-08-17T10:20:58;12.80;;;11.60;;
5127;SDS011;2582;48.770;9.190;2023-08-17T10:23:27;12.93;;;11.83;;
5127;SDS011;2582;48.770;9.190;2023-08-17T10:25:53;11.40;;;10.40;;
5127;SDS011;2582;48.770;9.190;2023-08-17T10:28:22;12.10;;;11.00;;
5127;SDS011;2582;48.770;9.190;2023-08-17T10:30:49;12.33;;;11.27;;
5127;SDS011;2582;48.770;9.190;2023-08-17T10:33:16;12.00;;;10.90;;
5127;SDS011;2582;48.770;9.190;2023-08-17T10:35:42;12.20;;;11.00;;
5127;SDS011;2582;48.770;9.190;2023-08-17T10:38:09;11.87;;;10.87;;
5127;SDS011;2582;48.770;9.190;2023-08-17T10:40:36;11.10;;;10.20;;
5127;SDS011;2582;48.770;9.190;2023-08-17T10:43:03;9.83;;;8.93;;
5127;SDS011;2582;48.770;9.190;2023-08-17T10:45:30;12.30;;;11.10;;
5127;SDS011;2582;48.770;9.190;2023-08-17T10:50:34;11.57;;;10.63;;
5127;SDS011;2582;48.770;9.190;2023-08-17T10:53:05;10.37;;;9.50;;
5127;SDS011;2582;48.770;9.190;2023-08-17T10:55:39;9.90;;;9.10;;
5127;SDS011;2582;48.770;9.190;2023-08-17T10:58:05;8.07;;;7.37;;
5127;SDS011;2582;48.770;9.190;2023-08-17T11:00:39;11.00;;;10.10;;
5127;SDS011;2582;48.770;9.190;2023-08-17T11:03:07;10.73;;;9.83;;
5127;SDS011;2582;48.770;9.190;2023-08-17T11:05:40;11.47;;;10.57;;
5127;SDS011;2582;48.770;9.190;2023-08-17T11:08:07;10.90;;;9.60;;
5127;SDS011;2582;48.770;9.190;2023-08-17T11:10:34;11.10;;;9.70;;
5127;SDS011;2582;48.770;9.190;2023-08-17T11:13:00;10.77;;;9.67;;
5127;SDS011;2582;48.770;9.190;2023-08-17T11:15:47;10.13;;;9.23;;
5127;SDS011;2582;48.770;9.190;2023-08-17T11:18:13;11.47;;;10.47;;
5127;SDS011;2582;48.770;9.190;2023-08-17T11:20:39;10.00;;;9.10;;
5127;SDS011;2582;48.770;9.190;2023-08-17T11:23:07;10.70;;;9.83;;
5127;SDS011;2582;48.770;9.190;2023-08-17T11:25:33;10.13;;;9.13;;
5127;SDS011;2582;48.770;9.190;2023-08-17T11:28:00;10.03;;;9.23;;
5127;SDS011;2582;48.770;9.190;2023-08-17T11:30:27;12.30;;;9.37;;
5127;SDS011;2582;48.770;9.190;2023-08-17T11:32:53;13.07;;;11.97;;
5127;SDS011;2582;48.770;9.190;2023-08-17T11:35:20;11.60;;;10.53;;
5127;SDS011;2582;48.770;9.190;2023-08-17T11:37:46;10.40;;;9.50;;
5127;SDS011;2582;48.770;9.190;2023-08-17T11:40:13;10.13;;;9.33;;
5127;SDS011;2582;48.770;9.190;2023-08-17T11:42:39;10.30;;;9.40;;
5127;SDS011;2582;48.770;9.190;2023-08-17T11:45:06;9.03;;;8.33;;
5127;SDS011;2582;48.770;9.190;2023-08-17T11:47:34;8.97;;;8.17;;
5127;SDS011;2582;48.770;9.190;2023-08-17T11:50:03;9.50;;;8.70;;
5127;SDS011;2582;48.770;9.190;2023-08-17T11:52:30;9.20;;;8.23;;
5127;SDS011;2582;48.770;9.190;2023-08-17T11:55:01;10.00;;;9.10;;
5127;SDS011;2582;48.770;9.190;2023-08-17T11:57:39;9.83;;;9.00;;
5127;SDS011;2582;48.770;9.190;2023-08-17T12:00:05;10.17;;;9.17;;
5127;SDS011;2582;48.770;9.190;2023-08-17T12:02:31;8.70;;;7.90;;
5127;SDS011;2582;48.770;9.190;2023-08-17T12:04:58;9.37;;;8.57;;
5127;SDS011;2582;48.770;9.190;2023-08-17T12:07:31;8.70;;;7.90;;
5127;SDS011;2582;48.770;9.190;2023-08-17T12:09:56;9.20;;;8.40;;
5127;SDS011;2582;48.770;9.190;2023-08-17T12:12:22;8.90;;;8.00;;
5127;SDS011;2582;48.770;9.190;2023-08-17T12:14:48;8.57;;;7.97;;
5127;SDS011;2582;48.770;9.190;2023-08-17T12:17:15;7.90;;;7.10;;
5127;SDS011;2582;48.770;9.190;2023-08-17T12:19:42;7.40;;;6.80;;
5127;SDS011;2582;48.770;9.190;2023-08-17T12:22:08;7.50;;;6.90;;
5127;SDS011;2582;48.770;9.190;2023-08-17T12:24:33;8.30;;;7.60;;
5127;SDS011;2582;48.770;9.190;2023-08-17T12:27:02;8.47;;;7.40;;
5127;SDS011;2582;48.770;9.190;2023-08-17T12:29:28;8.60;;;7.90;;
5127;SDS011;2582;48.770;9.190;2023-08-17T12:31:56;8.77;;;8.07;;
5127;SDS011;2582;48.770;9.190;2023-08-17T12:34:32;8.20;;;7.40;;
5127;SDS011;2582;48.770;9.190;2023-08-17T12:36:57;10.30;;;9.40;;
5127;SDS011;2582;48.770;9.190;2023-08-17T12:39:23;10.90;;;9.93;;
5127;SDS011;2582;48.770;9.190;2023-08-17T12:41:48;12.77;;;10.83;;
5127;SDS011;2582;48.770;9.190;2023-08-17T12:44:14;11.00;;;10.00;;
5127;SDS011;2582;48.770;9.190;2023-08-17T12:46:40;11.73;;;10.60;;
5127;SDS011;2582;48.770;9.190;2023-08-17T12:49:05;11.97;;;10.97;;
5127;SDS011;2582;48.770;9.190;2023-08-17T12:51:31;11.17;;;10.00;;
5127;SDS011;2582;48.770;9.190;2023-08-17T12:53:57;11.13;;;10.23;;
5127;SDS011;2582;48.770;9.190;2023-08-17T12:56:22;11.10;;;10.10;;
5127;SDS011;2582;48.770;9.190;2023-08-17T12:58:48;10.40;;;9.50;;
5127;SDS011;2582;48.770;9.190;2023-08-17T13:01:14;9.53;;;8.83;;
5127;SDS011;2582;48.770;9.190;2023-08-17T13:03:39;10.00;;;9.10;;
5127;SDS011;2582;48.770;9.190;2023-08-17T13:06:05;9.87;;;8.97;;
5127;SDS011;2582;48.770;9.190;2023-08-17T13:08:32;9.07;;;8.17;;
5127;SDS011;2582;48.770;9.190;2023-08-17T13:10:57;9.63;;;8.50;;
5127;SDS011;2582;48.770;9.190;2023-08-17T13:13:23;10.20;;;9.20;;
5127;SDS011;2582;48.770;9.190;2023-08-17T13:15:48;8.20;;;7.50;;
5127;SDS011;2582;48.770;9.190;2023-08-17T13:18:14;7.83;;;7.17;;
5127;SDS011;2582;48.770;9.190;2023-08-17T13:20:40;9.33;;;8.43;;
5127;SDS011;2582;48.770;9.190;2023-08-17T13:23:06;7.87;;;7.20;;
5127;SDS011;2582;48.770;9.190;2023-08-17T13:25:31;8.50;;;7.70;;
5127;SDS011;2582;48.770;9.190;2023-08-17T13:27:57;9.03;;;8.10;;
5127;SDS011;2582;48.770;9.190;2023-08-17T13:30:23;7.70;;;7.10;;
5127;SDS011;2582;48.770;9.190;2023-08-17T13:32:48;8.07;;;7.33;;
5127;SDS011;2582;48.770;9.190;2023-08-17T13:35:14;7.50;;;6.90;;
5127;SDS011;2582;48.770;9.190;2023-08-17T13:37:40;10.00;;;8.00;;
5127;SDS011;2582;48.770;9.190;2023-08-17T13:40:06;8.43;;;7.60;;
5127;SDS011;2582;48.770;9.190;2023-08-17T13:42:32;8.60;;;7.70;;
5127;SDS011;2582;48.770;9.190;2023-08-17T13:44:57;11.03;;;10.13;;
5127;SDS011;2582;48.770;9.190;2023-08-17T13:47:23;9.13;;;8.33;;
5127;SDS011;2582;48.770;9.190;2023-08-17T13:49:49;9.67;;;8.87;;
5127;SDS011;2582;48.770;9.190;2023-08-17T13:52:14;11.57;;;8.80;;
5127;SDS011;2582;48.770;9.190;2023-08-17T13:54:40;8.47;;;7.57;;
5127;SDS011;2582;48.770;9.190;2023-08-17T13:57:05;8.73;;;7.90;;
5127;SDS011;2582;48.770;9.190;2023-08-17T13:59:31;9.67;;;8.87;;
5127;SDS011;2582;48.770;9.190;2023-08-17T14:01:56;9.33;;;8.40;;
5127;SDS011;2582;48.770;9.190;2023-08-17T14:04:22;8.97;;;8.10;;
5127;SDS011;2582;48.770;9.190;2023-08-17T14:06:47;8.70;;;8.00;;
5127;SDS011;2582;48.770;9.190;2023-08-17T14:09:13;8.07;;;7.37;;
5127;SDS011;2582;48.770;9.190;2023-08-17T14:11:39;10.93;;;8.20;;
5127;SDS011;2582;48.770;9.190;2023-08-17T14:14:04;10.83;;;9.83;;
5127;SDS011;2582;48.770;9.190;2023-08-17T14:16:30;9.87;;;8.93;;
5127;SDS011;2582;48.770;9.190;2023-08-17T14:18:56;8.50;;;7.70;;
5127;SDS011;2582;48.770;9.190;2023-08-17T14:23:50;8.93;;;8.13;;
5127;SDS011;2582;48.770;9.190;2023-08-17T14:26:15;10.03;;;9.10;;
5127;SDS011;2582;48.770;9.190;2023-08-17T14:28:41;11.00;;;9.00;;
5127;SDS011;2582;48.770;9.190;2023-08-17T14:31:07;8.90;;;8.00;;
5127;SDS011;2582;48.770;9.190;2023-08-17T14:33:32;8.33;;;7.63;;
5127;SDS011;2582;48.770;9.190;2023-08-17T14:35:58;10.63;;;9.60;;
5127;SDS011;2582;48.770;9.190;2023-08-17T14:38:23;8.73;;;8.00;;
5127;SDS011;2582;48.770;9.190;2023-08-17T14:40:49;9.37;;;8.47;;
5127;SDS011;2582;48.770;9.190;2023-08-17T14:43:15;11.73;;;9.20;;
5127;SDS011;2582;48.770;9.190;2023-08-17T14:45:41;9.90;;;9.03;;
5127;SDS011;2582;48.770;9.190;2023-08-17T14:48:07;8.70;;;7.90;;
5127;SDS011;2582;48.770;9.190;2023-08-17T14:50:36;8.77;;;8.03;;
5127;SDS011;2582;48.770;9.190;2023-08-17T14:53:02;9.30;;;8.43;;
5127;SDS011;2582;48.770;9.190;2023-08-17T14:55:30;8.73;;;7.93;;
5127;SDS011;2582;48.770;9.190;2023-08-17T14:57:55;8.60;;;7.90;;
5127;SDS011;2582;48.770;9.190;2023-08-17T15:00:23;9.07;;;8.33;;
5127;SDS011;2582;48.770;9.190;2023-08-17T15:02:49;8.93;;;7.90;;
5127;SDS011;2582;48.770;9.190;2023-08-17T15:05:14;8.40;;;7.73;;
5127;SDS011;2582;48.770;9.190;2023-08-17T15:07:40;9.30;;;8.47;;
5127;SDS011;2582;48.770;9.190;2023-08-17T15:10:06;9.53;;;8.70;;